createdAt,value
2023-01-29T00:02:23.261Z,27.53
2023-01-29T00:04:53.676Z,27.46
2023-01-29T00:07:24.037Z,27.38
2023-01-29T00:09:54.384Z,27.37
2023-01-29T00:12:26.267Z,27.36
2023-01-29T00:14:56.167Z,27.34
2023-01-29T00:17:26.378Z,27.27
2023-01-29T00:19:56.229Z,27.17
2023-01-29T00:22:26.443Z,27.16
2023-01-29T00:24:56.783Z,27.13
2023-01-29T00:27:26.823Z,27.08
2023-01-29T00:30:14.506Z,27.06
2023-01-29T00:32:44.880Z,27.00
2023-01-29T00:35:14.917Z,26.92
2023-01-29T00:37:45.025Z,26.87
2023-01-29T00:40:15.744Z,26.93
2023-01-29T00:43:07.092Z,26.83
2023-01-29T00:45:40.891Z,26.76
2023-01-29T00:48:10.905Z,26.76
2023-01-29T00:50:41.136Z,26.72
2023-01-29T00:53:11.144Z,26.66
2023-01-29T00:55:41.158Z,26.68
2023-01-29T00:58:11.322Z,26.76
2023-01-29T01:00:41.417Z,26.71
2023-01-29T01:03:12.295Z,26.65
2023-01-29T01:05:45.390Z,26.66
2023-01-29T01:08:33.788Z,26.66
2023-01-29T01:11:07.946Z,26.63
2023-01-29T01:13:38.208Z,26.51
2023-01-29T01:16:16.286Z,26.52
2023-01-29T01:18:46.733Z,26.52
2023-01-29T01:21:17.065Z,26.52
2023-01-29T01:23:47.356Z,26.52
2023-01-29T01:26:17.372Z,26.48
2023-01-29T01:28:47.536Z,26.34
2023-01-29T01:31:17.619Z,26.18
2023-01-29T01:33:47.793Z,26.39
2023-01-29T01:36:18.338Z,26.48
2023-01-29T01:38:48.550Z,26.66
2023-01-29T01:41:23.111Z,26.75
2023-01-29T01:43:58.620Z,26.78
2023-01-29T01:46:33.465Z,26.76
2023-01-29T01:49:14.037Z,26.69
2023-01-29T01:51:52.353Z,26.71
2023-01-29T01:54:32.901Z,26.72
2023-01-29T01:57:17.154Z,26.71
2023-01-29T02:00:01.811Z,26.66
2023-01-29T02:03:04.088Z,26.63
2023-01-29T02:05:53.936Z,26.59
2023-01-29T02:09:12.306Z,26.49
2023-01-29T02:11:42.423Z,26.07
2023-01-29T02:14:13.163Z,25.96
2023-01-29T02:16:43.202Z,25.94
2023-01-29T02:19:24.173Z,25.87
2023-01-29T02:22:08.171Z,25.65
2023-01-29T02:25:01.304Z,25.65
2023-01-29T02:27:46.088Z,25.56
2023-01-29T02:30:20.541Z,25.43
2023-01-29T02:32:59.506Z,25.46
2023-01-29T02:35:55.109Z,25.47
2023-01-29T02:38:43.468Z,25.38
2023-01-29T02:41:22.355Z,25.33
2023-01-29T02:44:22.257Z,25.32
2023-01-29T02:47:26.625Z,25.30
2023-01-29T02:50:05.921Z,25.23
2023-01-29T02:52:59.691Z,25.19
2023-01-29T02:55:52.066Z,25.16
2023-01-29T02:58:59.417Z,25.14
2023-01-29T03:01:37.704Z,25.09
2023-01-29T03:04:16.801Z,25.02
2023-01-29T03:06:57.980Z,24.99
2023-01-29T03:09:43.746Z,24.98
2023-01-29T03:15:40.159Z,24.85
2023-01-29T03:18:28.919Z,24.85
2023-01-29T03:21:26.658Z,24.82
2023-01-29T03:24:17.765Z,24.84
2023-01-29T03:27:06.019Z,24.81
2023-01-29T03:29:59.970Z,24.78
2023-01-29T03:32:48.269Z,24.80
2023-01-29T03:35:37.707Z,24.72
2023-01-29T03:38:12.967Z,24.70
2023-01-29T03:40:47.676Z,24.67
2023-01-29T03:43:57.137Z,24.68
2023-01-29T03:46:33.389Z,24.63
2023-01-29T03:49:36.272Z,24.61
2023-01-29T03:52:19.483Z,24.57
2023-01-29T03:54:58.980Z,24.60
2023-01-29T03:58:03.099Z,24.61
2023-01-29T04:00:40.288Z,24.53
2023-01-29T04:03:31.304Z,24.47
2023-01-29T04:06:17.111Z,24.43
2023-01-29T04:09:14.763Z,24.34
2023-01-29T04:11:53.976Z,24.29
2023-01-29T04:14:24.936Z,24.20
2023-01-29T04:17:02.491Z,24.12
2023-01-29T04:19:40.852Z,24.05
2023-01-29T04:28:29.444Z,23.92
2023-01-29T04:31:08.410Z,23.88
2023-01-29T04:33:49.936Z,23.85
2023-01-29T04:36:53.933Z,23.81
2023-01-29T04:39:54.558Z,23.75
2023-01-29T04:42:31.496Z,23.78
2023-01-29T04:45:21.516Z,23.73
2023-01-29T04:48:14.730Z,23.72
2023-01-29T04:51:15.347Z,23.76
2023-01-29T04:53:53.750Z,23.73
2023-01-29T04:56:38.839Z,23.71
2023-01-29T04:59:17.705Z,23.66
2023-01-29T05:01:49.665Z,23.61
2023-01-29T05:04:20.673Z,23.69
2023-01-29T05:06:51.559Z,23.66
2023-01-29T05:09:22.019Z,23.73
2023-01-29T05:11:52.431Z,23.72
2023-01-29T05:14:25.418Z,23.75
2023-01-29T05:16:58.824Z,23.76
2023-01-29T05:19:29.211Z,23.79
2023-01-29T05:22:00.201Z,23.79
2023-01-29T05:24:30.409Z,23.78
2023-01-29T05:27:18.492Z,23.73
2023-01-29T05:29:50.394Z,23.75
2023-01-29T05:32:20.384Z,23.72
2023-01-29T05:34:50.477Z,23.65
2023-01-29T05:37:20.448Z,23.71
2023-01-29T05:39:50.410Z,23.73
2023-01-29T05:42:20.588Z,23.73
2023-01-29T05:44:50.549Z,23.79
2023-01-29T05:47:23.804Z,23.83
2023-01-29T05:49:53.749Z,23.79
2023-01-29T05:52:23.548Z,23.79
2023-01-29T05:54:53.546Z,23.76
2023-01-29T05:57:23.597Z,23.75
2023-01-29T05:59:53.603Z,23.72
2023-01-29T06:02:23.791Z,23.76
2023-01-29T06:04:54.258Z,23.73
2023-01-29T06:07:24.335Z,23.72
2023-01-29T06:09:54.376Z,23.72
2023-01-29T06:12:24.297Z,23.71
2023-01-29T06:14:54.094Z,23.71
2023-01-29T06:17:23.923Z,23.75
2023-01-29T06:19:53.903Z,23.72
2023-01-29T06:22:23.684Z,23.69
2023-01-29T06:24:53.635Z,23.68
2023-01-29T06:27:23.647Z,23.63
2023-01-29T06:29:53.707Z,23.65
2023-01-29T06:32:23.932Z,23.59
2023-01-29T06:34:54.423Z,23.61
2023-01-29T06:37:24.388Z,23.65
2023-01-29T06:39:54.191Z,23.65
2023-01-29T06:42:29.882Z,23.68
2023-01-29T06:44:59.899Z,23.72
2023-01-29T06:47:30.045Z,23.65
2023-01-29T06:50:00.016Z,23.63
2023-01-29T06:52:30.869Z,23.59
2023-01-29T06:55:00.864Z,23.63
2023-01-29T06:57:33.519Z,23.65
2023-01-29T07:00:03.817Z,23.66
2023-01-29T07:02:33.918Z,23.63
2023-01-29T07:05:03.717Z,23.58
2023-01-29T07:07:35.926Z,23.57
2023-01-29T07:10:06.242Z,23.54
2023-01-29T07:12:36.366Z,23.59
2023-01-29T07:15:06.807Z,23.59
2023-01-29T07:17:36.923Z,23.59
2023-01-29T07:20:07.786Z,23.58
2023-01-29T07:22:37.915Z,23.61
2023-01-29T07:25:08.440Z,23.61
2023-01-29T07:27:38.416Z,23.59
2023-01-29T07:30:09.513Z,23.61
2023-01-29T07:32:39.613Z,23.59
2023-01-29T07:35:10.064Z,23.61
2023-01-29T07:37:40.109Z,23.58
2023-01-29T07:40:14.535Z,23.62
2023-01-29T07:42:45.371Z,23.57
2023-01-29T07:45:15.569Z,23.55
2023-01-29T07:47:45.555Z,23.51
2023-01-29T07:50:15.713Z,23.51
2023-01-29T07:52:45.795Z,23.50
2023-01-29T07:55:15.669Z,23.50
2023-01-29T07:57:46.283Z,23.48
2023-01-29T08:00:17.035Z,23.44
2023-01-29T08:02:47.388Z,23.38
2023-01-29T08:05:17.353Z,23.40
2023-01-29T08:07:51.548Z,23.42
2023-01-29T08:10:31.226Z,23.44
2023-01-29T08:13:02.672Z,23.40
2023-01-29T08:15:33.305Z,23.37
2023-01-29T08:18:04.376Z,23.38
2023-01-29T08:20:34.720Z,23.38
2023-01-29T08:23:07.254Z,23.31
2023-01-29T08:25:39.049Z,23.27
2023-01-29T08:28:09.958Z,23.31
2023-01-29T08:30:40.504Z,23.32
2023-01-29T08:33:10.525Z,23.34
2023-01-29T08:35:42.287Z,23.28
2023-01-29T08:38:12.461Z,23.22
2023-01-29T08:40:42.432Z,23.20
2023-01-29T08:43:14.349Z,23.24
2023-01-29T08:45:46.333Z,23.18
2023-01-29T08:48:16.330Z,23.24
2023-01-29T08:50:46.469Z,23.24
2023-01-29T08:53:16.446Z,23.20
2023-01-29T08:55:48.066Z,23.20
2023-01-29T08:58:18.280Z,23.14
2023-01-29T09:00:48.337Z,23.14
2023-01-29T09:03:18.336Z,23.17
2023-01-29T09:05:48.543Z,23.17
2023-01-29T09:08:18.480Z,23.11
2023-01-29T09:10:48.429Z,23.07
2023-01-29T09:13:18.616Z,23.07
2023-01-29T09:15:48.573Z,23.06
2023-01-29T09:18:18.543Z,23.06
2023-01-29T09:20:48.795Z,23.06
2023-01-29T09:23:18.786Z,23.07
2023-01-29T09:25:48.773Z,23.08
2023-01-29T09:28:19.009Z,23.11
2023-01-29T09:30:49.261Z,23.06
2023-01-29T09:33:19.757Z,23.10
2023-01-29T09:35:49.736Z,23.20
2023-01-29T09:38:19.728Z,23.24
2023-01-29T09:40:58.365Z,23.32
2023-01-29T09:43:45.623Z,23.45
2023-01-29T09:46:34.784Z,23.51
2023-01-29T09:49:30.356Z,23.65
2023-01-29T09:52:05.642Z,23.73
2023-01-29T09:54:48.890Z,23.79
2023-01-29T09:57:32.170Z,23.89
2023-01-29T10:00:02.148Z,24.00
2023-01-29T10:02:59.684Z,24.17
2023-01-29T10:06:01.721Z,24.33
2023-01-29T10:08:52.857Z,24.43
2023-01-29T10:11:39.795Z,24.57
2023-01-29T10:14:20.926Z,24.71
2023-01-29T10:17:08.262Z,24.84
2023-01-29T10:19:56.529Z,24.98
2023-01-29T10:22:59.219Z,25.12
2023-01-29T10:25:29.684Z,25.20
2023-01-29T10:28:01.600Z,25.28
2023-01-29T10:30:40.158Z,25.32
2023-01-29T10:33:18.579Z,25.29
2023-01-29T10:35:55.797Z,25.39
2023-01-29T10:38:39.093Z,25.46
2023-01-29T10:41:14.962Z,25.56
2023-01-29T10:44:03.316Z,25.73
2023-01-29T10:47:10.160Z,25.91
2023-01-29T10:50:18.280Z,26.05
2023-01-29T10:53:04.994Z,26.21
2023-01-29T10:55:49.999Z,26.35
2023-01-29T10:58:43.022Z,26.48
2023-01-29T11:01:13.098Z,26.56
2023-01-29T11:03:43.136Z,26.62
2023-01-29T11:06:17.436Z,26.72
2023-01-29T11:09:11.862Z,26.90
2023-01-29T11:11:52.598Z,26.99
2023-01-29T11:14:48.695Z,27.34
2023-01-29T11:17:23.985Z,27.58
2023-01-29T11:19:59.041Z,27.92
2023-01-29T11:22:31.806Z,28.26
2023-01-29T11:25:19.744Z,28.74
2023-01-29T11:28:02.613Z,28.43
2023-01-29T11:30:43.004Z,28.27
2023-01-29T11:33:25.664Z,28.20
2023-01-29T11:35:58.056Z,29.12
2023-01-29T11:38:30.228Z,30.34
2023-01-29T11:41:09.534Z,30.82
2023-01-29T11:43:41.070Z,31.32
2023-01-29T11:46:16.909Z,31.78
2023-01-29T11:48:59.331Z,32.55
2023-01-29T11:51:37.955Z,32.21
2023-01-29T11:54:13.003Z,31.92
2023-01-29T11:56:48.473Z,31.88
2023-01-29T11:59:31.022Z,31.82
2023-01-29T12:02:24.197Z,32.25
2023-01-29T12:04:56.929Z,33.13
2023-01-29T12:07:28.350Z,33.08
2023-01-29T12:10:01.208Z,32.33
2023-01-29T12:12:42.086Z,32.40
2023-01-29T12:15:25.576Z,33.44
2023-01-29T12:18:05.581Z,33.94
2023-01-29T12:20:45.049Z,35.04
2023-01-29T12:23:42.500Z,34.86
2023-01-29T12:26:17.420Z,34.61
2023-01-29T12:29:26.113Z,34.46
2023-01-29T12:32:05.064Z,34.86
2023-01-29T12:34:53.208Z,35.35
2023-01-29T12:37:43.540Z,35.76
2023-01-29T12:40:19.475Z,36.88
2023-01-29T12:42:54.796Z,37.45
2023-01-29T12:45:29.440Z,37.38
2023-01-29T12:48:06.889Z,38.49
2023-01-29T12:50:40.334Z,37.46
2023-01-29T12:53:32.433Z,37.14
2023-01-29T12:56:26.426Z,36.85
2023-01-29T12:58:58.869Z,37.03
2023-01-29T13:01:37.793Z,36.91
2023-01-29T13:04:44.928Z,37.25
2023-01-29T13:07:48.638Z,38.25
2023-01-29T13:10:25.740Z,39.24
2023-01-29T13:13:03.683Z,38.61
2023-01-29T13:15:43.620Z,38.31
2023-01-29T13:18:35.510Z,38.11
2023-01-29T13:21:07.102Z,39.60
2023-01-29T13:23:41.217Z,40.52
2023-01-29T13:26:12.982Z,39.13
2023-01-29T13:28:47.358Z,39.02
2023-01-29T13:31:49.740Z,38.25
2023-01-29T13:34:33.594Z,37.91
2023-01-29T13:37:12.191Z,37.90
2023-01-29T13:39:50.562Z,37.03
2023-01-29T13:42:34.407Z,36.48
2023-01-29T13:45:08.813Z,35.89
2023-01-29T13:47:41.405Z,35.42
2023-01-29T13:50:21.177Z,35.46
2023-01-29T13:53:03.305Z,35.51
2023-01-29T13:55:35.921Z,35.58
2023-01-29T13:58:20.411Z,35.63
2023-01-29T14:00:51.466Z,35.56
2023-01-29T14:03:29.967Z,35.80
2023-01-29T14:06:05.988Z,35.68
2023-01-29T14:08:46.517Z,35.99
2023-01-29T14:11:21.201Z,36.11
2023-01-29T14:13:53.488Z,36.52
2023-01-29T14:16:23.494Z,36.39
2023-01-29T14:19:00.436Z,36.92
2023-01-29T14:21:33.547Z,36.47
2023-01-29T14:24:19.558Z,36.50
2023-01-29T14:26:50.362Z,36.58
2023-01-29T14:29:34.158Z,36.13
2023-01-29T14:32:26.592Z,36.15
2023-01-29T14:35:06.515Z,36.15
2023-01-29T14:37:40.282Z,36.19
2023-01-29T14:40:13.230Z,36.07
2023-01-29T14:43:09.424Z,35.93
2023-01-29T14:45:43.082Z,35.82
2023-01-29T14:48:13.068Z,36.06
2023-01-29T14:50:49.562Z,36.10
2023-01-29T14:53:57.168Z,35.88
2023-01-29T14:56:42.092Z,35.63
2023-01-29T14:59:30.833Z,35.80
2023-01-29T15:02:27.679Z,36.02
2023-01-29T15:05:01.382Z,36.07
2023-01-29T15:07:57.191Z,36.07
2023-01-29T15:10:45.156Z,36.54
2023-01-29T15:13:23.366Z,36.54
2023-01-29T15:15:58.509Z,36.41
2023-01-29T15:18:43.035Z,37.36
2023-01-29T15:21:17.167Z,39.27
2023-01-29T15:23:51.354Z,40.53
2023-01-29T15:26:26.651Z,41.82
2023-01-29T15:29:04.149Z,42.25
2023-01-29T15:31:36.643Z,42.15
2023-01-29T15:34:08.895Z,42.16
2023-01-29T15:36:41.024Z,42.05
2023-01-29T15:39:14.047Z,41.17
2023-01-29T15:41:45.799Z,40.99
2023-01-29T15:44:25.205Z,42.03
2023-01-29T15:47:02.771Z,41.75
2023-01-29T15:49:36.676Z,41.01
2023-01-29T15:52:20.640Z,40.41
2023-01-29T15:54:50.816Z,39.39
2023-01-29T15:57:38.393Z,37.49
2023-01-29T16:00:20.082Z,36.00
2023-01-29T16:02:50.436Z,35.28
2023-01-29T16:05:34.629Z,35.03
2023-01-29T16:08:05.527Z,35.08
2023-01-29T16:10:37.199Z,35.89
2023-01-29T16:13:07.610Z,35.62
2023-01-29T16:15:41.377Z,35.46
2023-01-29T16:18:35.226Z,35.14
2023-01-29T16:21:13.877Z,34.37
2023-01-29T16:24:08.214Z,33.31
2023-01-29T16:26:50.387Z,32.09
2023-01-29T16:29:35.509Z,31.60
2023-01-29T16:32:07.299Z,31.20
2023-01-29T16:34:42.149Z,30.18
2023-01-29T16:37:33.873Z,29.56
2023-01-29T16:40:16.375Z,29.39
2023-01-29T16:42:48.409Z,28.98
2023-01-29T16:45:28.792Z,28.54
2023-01-29T16:48:33.618Z,27.96
2023-01-29T16:51:14.908Z,27.18
2023-01-29T16:54:02.940Z,26.83
2023-01-29T16:56:35.013Z,26.68
2023-01-29T16:59:07.381Z,26.63
2023-01-29T17:01:38.093Z,26.32
2023-01-29T17:04:16.291Z,26.34
2023-01-29T17:06:55.176Z,26.48
2023-01-29T17:09:38.657Z,26.63
2023-01-29T17:12:20.349Z,26.78
2023-01-29T17:14:59.069Z,26.65
2023-01-29T17:17:34.711Z,26.55
2023-01-29T17:20:17.713Z,26.73
2023-01-29T17:22:48.242Z,26.82
2023-01-29T17:25:19.929Z,26.90
2023-01-29T17:27:52.913Z,26.85
2023-01-29T17:30:26.072Z,26.65
2023-01-29T17:32:56.047Z,26.56
2023-01-29T17:35:26.269Z,26.55
2023-01-29T17:37:56.149Z,26.48
2023-01-29T17:40:37.010Z,26.44
2023-01-29T17:43:08.752Z,26.48
2023-01-29T17:45:41.793Z,26.27
2023-01-29T17:48:27.274Z,26.13
2023-01-29T17:51:00.203Z,25.96
2023-01-29T17:53:43.447Z,25.81
2023-01-29T17:56:20.000Z,25.80
2023-01-29T17:58:50.254Z,25.76
2023-01-29T18:01:20.313Z,25.76
2023-01-29T18:03:50.193Z,25.65
2023-01-29T18:06:31.433Z,25.65
2023-01-29T18:09:01.406Z,25.47
2023-01-29T18:11:31.523Z,25.42
2023-01-29T18:14:13.605Z,25.38
2023-01-29T18:16:46.357Z,25.33
2023-01-29T18:19:18.809Z,25.38
2023-01-29T18:21:49.875Z,25.07
2023-01-29T18:24:21.526Z,24.94
2023-01-29T18:26:52.419Z,24.89
2023-01-29T18:29:22.388Z,24.95
2023-01-29T18:31:52.291Z,24.75
2023-01-29T18:34:22.897Z,24.84
2023-01-29T18:36:52.949Z,24.77
2023-01-29T18:39:22.979Z,24.88
2023-01-29T18:41:53.539Z,24.68
2023-01-29T18:44:23.522Z,24.23
2023-01-29T18:46:53.398Z,23.99
2023-01-29T18:49:23.250Z,23.92
2023-01-29T18:51:53.294Z,23.99
2023-01-29T18:54:23.286Z,24.39
2023-01-29T18:57:08.669Z,24.65
2023-01-29T18:59:44.515Z,24.85
2023-01-29T19:02:17.054Z,24.96
2023-01-29T19:04:47.331Z,25.12
2023-01-29T19:07:17.383Z,24.94
2023-01-29T19:09:48.085Z,24.63
2023-01-29T19:12:18.953Z,24.72
2023-01-29T19:14:49.004Z,24.99
2023-01-29T19:17:19.324Z,25.23
2023-01-29T19:19:49.533Z,25.32
2023-01-29T19:22:20.177Z,24.98
2023-01-29T19:24:50.418Z,24.61
2023-01-29T19:27:20.827Z,24.59
2023-01-29T19:29:52.167Z,24.64
2023-01-29T19:32:23.102Z,24.92
2023-01-29T19:34:53.429Z,24.92
2023-01-29T19:37:23.499Z,25.01
2023-01-29T19:39:54.780Z,25.15
2023-01-29T19:42:24.827Z,25.22
2023-01-29T19:44:54.827Z,25.07
2023-01-29T19:47:24.884Z,25.19
2023-01-29T19:49:54.887Z,25.09
2023-01-29T19:52:52.000Z,24.99
2023-01-29T19:55:22.603Z,25.22
2023-01-29T19:57:54.739Z,25.26
2023-01-29T20:00:24.991Z,25.12
2023-01-29T20:02:54.960Z,25.23
2023-01-29T20:05:28.114Z,25.20
2023-01-29T20:07:59.758Z,24.99
2023-01-29T20:10:29.770Z,24.80
2023-01-29T20:12:59.634Z,24.68
2023-01-29T20:15:29.542Z,24.96
2023-01-29T20:18:00.191Z,25.22
2023-01-29T20:20:32.575Z,25.32
2023-01-29T20:23:02.973Z,25.45
2023-01-29T20:25:33.115Z,25.58
2023-01-29T20:28:03.479Z,25.54
2023-01-29T20:30:34.753Z,25.51
2023-01-29T20:33:06.139Z,25.32
2023-01-29T20:35:37.590Z,25.23
2023-01-29T20:38:09.571Z,25.09
2023-01-29T20:40:39.531Z,25.23
2023-01-29T20:43:09.693Z,25.36
2023-01-29T20:45:42.857Z,25.53
2023-01-29T20:48:13.121Z,25.62
2023-01-29T20:50:44.112Z,25.62
2023-01-29T20:53:14.306Z,25.59
2023-01-29T20:55:44.273Z,25.54
2023-01-29T20:58:14.343Z,25.43
2023-01-29T21:00:46.295Z,25.45
2023-01-29T21:03:16.334Z,25.28
2023-01-29T21:05:46.710Z,25.22
2023-01-29T21:08:16.698Z,25.28
2023-01-29T21:10:46.942Z,25.25
2023-01-29T21:13:17.223Z,25.22
2023-01-29T21:15:48.224Z,25.30
2023-01-29T21:18:19.476Z,25.19
2023-01-29T21:20:51.679Z,25.22
2023-01-29T21:23:22.343Z,25.18
2023-01-29T21:25:52.341Z,25.14
2023-01-29T21:28:22.582Z,25.12
2023-01-29T21:30:53.547Z,24.96
2023-01-29T21:33:23.706Z,24.59
2023-01-29T21:36:00.099Z,24.36
2023-01-29T21:38:30.551Z,24.39
2023-01-29T21:41:02.096Z,24.44
2023-01-29T21:43:32.529Z,24.43
2023-01-29T21:46:06.151Z,24.49
2023-01-29T21:48:36.398Z,24.36
2023-01-29T21:51:06.703Z,24.24
2023-01-29T21:53:37.902Z,24.37
2023-01-29T21:56:08.180Z,24.53
2023-01-29T21:58:38.241Z,24.61
2023-01-29T22:01:18.443Z,24.61
2023-01-29T22:03:59.555Z,24.72
2023-01-29T22:06:30.155Z,24.68
2023-01-29T22:08:59.995Z,24.57
2023-01-29T22:11:29.902Z,24.47
2023-01-29T22:14:00.126Z,24.40
2023-01-29T22:16:31.000Z,24.30
2023-01-29T22:19:02.653Z,24.27
2023-01-29T22:21:34.474Z,24.21
2023-01-29T22:24:06.370Z,24.16
2023-01-29T22:26:36.871Z,24.05
2023-01-29T22:29:07.105Z,24.02
2023-01-29T22:31:37.084Z,23.93
2023-01-29T22:34:08.013Z,23.89
2023-01-29T22:36:40.189Z,23.86
2023-01-29T22:39:10.786Z,23.82
2023-01-29T22:41:40.926Z,23.79
2023-01-29T22:44:11.585Z,23.83
2023-01-29T22:46:44.758Z,23.75
2023-01-29T22:49:14.869Z,23.48
2023-01-29T22:51:45.016Z,23.42
2023-01-29T22:54:16.654Z,23.37
2023-01-29T22:56:48.561Z,23.25
2023-01-29T22:59:18.463Z,23.21
2023-01-29T23:01:53.389Z,23.25
2023-01-29T23:04:23.519Z,23.28
2023-01-29T23:06:53.373Z,23.20
2023-01-29T23:09:23.781Z,23.17
2023-01-29T23:11:53.776Z,23.14
2023-01-29T23:14:23.813Z,23.15
2023-01-29T23:16:54.069Z,23.13
2023-01-29T23:19:24.432Z,23.13
2023-01-29T23:21:54.515Z,23.01
2023-01-29T23:24:24.771Z,22.93
2023-01-29T23:27:13.155Z,22.83
2023-01-29T23:29:48.618Z,22.97
2023-01-29T23:32:22.327Z,23.00
2023-01-29T23:34:53.656Z,23.00
2023-01-29T23:37:23.644Z,22.97
2023-01-29T23:39:53.973Z,22.94
2023-01-29T23:42:23.976Z,22.94
2023-01-29T23:44:53.980Z,22.93
2023-01-29T23:47:24.116Z,22.90
2023-01-29T23:49:54.386Z,22.93
2023-01-29T23:52:24.370Z,22.97
2023-01-29T23:54:54.206Z,22.94
2023-01-29T23:57:24.272Z,22.90
2023-01-29T23:59:54.278Z,22.93
